createdAt,value
2022-10-13T04:30:32.331Z,1004.37
2022-10-13T04:31:32.305Z,1004.32
2022-10-13T04:32:33.910Z,1004.21
2022-10-13T04:33:32.272Z,1004.15
2022-10-13T04:34:32.259Z,1004.21
2022-10-13T04:35:32.262Z,1004.28
2022-10-13T04:36:32.256Z,1004.28
2022-10-13T04:37:32.257Z,1004.31
2022-10-13T04:38:32.219Z,1004.25
2022-10-13T04:39:32.215Z,1004.24
2022-10-13T04:40:32.222Z,1004.21
2022-10-13T04:41:32.204Z,1004.24
2022-10-13T04:42:32.173Z,1004.21
2022-10-13T04:43:32.162Z,1004.24
2022-10-13T04:44:32.157Z,1004.18
2022-10-13T04:45:32.143Z,1004.24
2022-10-13T04:46:32.172Z,1004.23
2022-10-13T04:47:36.759Z,1004.23
2022-10-13T04:48:32.112Z,1004.17
2022-10-13T04:49:32.102Z,1004.23
2022-10-13T04:50:32.090Z,1004.20
2022-10-13T04:51:32.080Z,1004.20
2022-10-13T04:52:32.083Z,1004.16
2022-10-13T04:53:32.073Z,1004.16
2022-10-13T04:54:32.051Z,1004.17
2022-10-13T04:55:32.058Z,1004.21
2022-10-13T04:56:32.029Z,1004.15
2022-10-13T04:57:32.006Z,1004.13
2022-10-13T04:58:32.001Z,1004.13
2022-10-13T04:59:32.031Z,1004.11
2022-10-13T05:00:32.040Z,1004.11
2022-10-13T05:01:31.969Z,1004.12
2022-10-13T05:02:31.977Z,1004.13
2022-10-13T05:03:31.952Z,1004.13
2022-10-13T05:04:31.954Z,1004.13
2022-10-13T05:05:31.969Z,1004.08
2022-10-13T05:06:31.933Z,1004.07
2022-10-13T05:07:31.910Z,1003.99
2022-10-13T05:08:31.914Z,1003.98
2022-10-13T05:09:31.903Z,1004.01
2022-10-13T05:10:34.752Z,1004.01
2022-10-13T05:11:31.857Z,1004.03
2022-10-13T05:12:31.877Z,1004.05
2022-10-13T05:13:31.875Z,1004.06
2022-10-13T05:14:31.839Z,1004.11
2022-10-13T05:15:31.827Z,1004.08
2022-10-13T05:16:31.810Z,1004.10
2022-10-13T05:17:35.335Z,1004.05
2022-10-13T05:18:31.799Z,1004.06
2022-10-13T05:19:31.776Z,1004.05
2022-10-13T05:20:31.760Z,1004.05
2022-10-13T05:21:31.768Z,1004.05
2022-10-13T05:22:31.744Z,1004.04
2022-10-13T05:23:31.747Z,1004.04
2022-10-13T05:24:31.735Z,1004.03
2022-10-13T05:25:34.000Z,1004.04
2022-10-13T05:26:31.695Z,1003.99
2022-10-13T05:27:31.740Z,1003.86
2022-10-13T05:28:31.736Z,1003.89
2022-10-13T05:29:31.674Z,1003.95
2022-10-13T05:30:31.659Z,1003.98
2022-10-13T05:31:31.643Z,1003.95
2022-10-13T05:32:31.667Z,1003.94
2022-10-13T05:33:31.631Z,1003.93
2022-10-13T05:34:31.684Z,1003.87
2022-10-13T05:35:31.604Z,1003.91
2022-10-13T05:36:31.594Z,1003.89
2022-10-13T05:37:31.598Z,1003.92
2022-10-13T05:38:31.568Z,1003.90
2022-10-13T05:39:31.568Z,1003.81
2022-10-13T05:40:31.562Z,1003.75
2022-10-13T05:41:31.548Z,1003.73
2022-10-13T05:42:31.536Z,1003.79
2022-10-13T05:43:31.512Z,1003.86
2022-10-13T05:44:31.522Z,1003.80
2022-10-13T05:45:31.511Z,1003.73
2022-10-13T05:46:31.484Z,1003.69
2022-10-13T05:47:31.464Z,1003.81
2022-10-13T05:48:31.488Z,1003.82
2022-10-13T05:49:31.444Z,1003.83
2022-10-13T05:50:31.452Z,1003.80
2022-10-13T05:51:31.438Z,1003.81
2022-10-13T05:52:31.430Z,1003.83
2022-10-13T05:53:31.405Z,1003.87
2022-10-13T05:54:31.394Z,1003.81
2022-10-13T05:55:31.379Z,1003.83
2022-10-13T05:56:31.370Z,1003.72
2022-10-13T05:57:31.381Z,1003.79
2022-10-13T05:58:31.380Z,1003.70
2022-10-13T05:59:31.342Z,1003.65
2022-10-13T06:00:31.351Z,1003.64
2022-10-13T06:01:31.343Z,1003.70
2022-10-13T06:02:31.326Z,1003.72
2022-10-13T06:03:31.298Z,1003.70
2022-10-13T06:04:31.285Z,1003.71
2022-10-13T06:05:31.279Z,1003.71
2022-10-13T06:06:31.802Z,1003.71
2022-10-13T06:07:31.273Z,1003.65
2022-10-13T06:08:31.242Z,1003.66
2022-10-13T06:09:31.267Z,1003.69
2022-10-13T06:10:31.222Z,1003.72
2022-10-13T06:11:31.234Z,1003.72
2022-10-13T06:12:31.208Z,1003.73
2022-10-13T06:13:31.207Z,1003.70
2022-10-13T06:14:31.196Z,1003.73
2022-10-13T06:15:31.161Z,1003.76
2022-10-13T06:16:31.164Z,1003.80
2022-10-13T06:17:31.166Z,1003.80
2022-10-13T06:18:31.150Z,1003.80
2022-10-13T06:19:31.125Z,1003.72
2022-10-13T06:20:31.106Z,1003.69
2022-10-13T06:21:31.112Z,1003.75
2022-10-13T06:22:31.130Z,1003.70
2022-10-13T06:23:31.077Z,1003.69
2022-10-13T06:24:31.067Z,1003.67
2022-10-13T06:25:31.051Z,1003.74
2022-10-13T06:26:31.048Z,1003.74
2022-10-13T06:27:31.070Z,1003.77
2022-10-13T06:28:31.055Z,1003.80
2022-10-13T06:29:31.019Z,1003.74
2022-10-13T06:30:31.020Z,1003.79
2022-10-13T06:31:30.993Z,1003.72
2022-10-13T06:32:30.983Z,1003.72
2022-10-13T06:33:30.997Z,1003.75
2022-10-13T06:34:30.962Z,1003.76
2022-10-13T06:35:30.969Z,1003.76
2022-10-13T06:36:30.939Z,1003.70
2022-10-13T06:37:30.930Z,1003.68
2022-10-13T06:38:30.989Z,1003.66
2022-10-13T06:39:30.938Z,1003.67
2022-10-13T06:40:30.923Z,1003.66
2022-10-13T06:41:30.890Z,1003.68
2022-10-13T06:42:30.886Z,1003.67
2022-10-13T06:43:35.975Z,1003.64
2022-10-13T06:44:31.976Z,1003.59
2022-10-13T06:45:30.858Z,1003.51
2022-10-13T06:46:30.837Z,1003.51
2022-10-13T06:47:30.830Z,1003.56
2022-10-13T06:48:30.824Z,1003.64
2022-10-13T06:49:30.826Z,1003.68
2022-10-13T06:50:30.814Z,1003.70
2022-10-13T06:51:30.782Z,1003.72
2022-10-13T06:52:30.782Z,1003.69
2022-10-13T06:53:30.753Z,1003.68
2022-10-13T06:54:30.766Z,1003.68
2022-10-13T06:55:30.751Z,1003.69
2022-10-13T06:56:30.744Z,1003.75
2022-10-13T06:57:30.727Z,1003.68
2022-10-13T06:58:30.709Z,1003.69
2022-10-13T06:59:30.711Z,1003.70
2022-10-13T07:00:30.732Z,1003.70
2022-10-13T07:01:30.673Z,1003.67
2022-10-13T07:02:30.679Z,1003.73
2022-10-13T07:03:30.676Z,1003.70
2022-10-13T07:04:30.657Z,1003.66
2022-10-13T07:05:30.642Z,1003.77
2022-10-13T07:06:30.629Z,1003.77
2022-10-13T07:07:30.613Z,1003.64
2022-10-13T07:08:30.623Z,1003.65
2022-10-13T07:09:30.608Z,1003.77
2022-10-13T07:10:30.614Z,1003.79
2022-10-13T07:11:30.567Z,1003.80
2022-10-13T07:12:30.554Z,1003.82
2022-10-13T07:13:33.566Z,1003.80
2022-10-13T07:14:31.577Z,1003.76
2022-10-13T07:15:30.529Z,1003.74
2022-10-13T07:16:30.529Z,1003.74
2022-10-13T07:17:30.490Z,1003.71
2022-10-13T07:18:30.494Z,1003.69
2022-10-13T07:19:30.473Z,1003.63
2022-10-13T07:20:30.490Z,1003.63
2022-10-13T07:21:30.485Z,1003.61
2022-10-13T07:22:30.442Z,1003.61
2022-10-13T07:23:30.432Z,1003.64
2022-10-13T07:24:30.425Z,1003.70
2022-10-13T07:25:30.482Z,1003.68
2022-10-13T07:26:30.461Z,1003.67
2022-10-13T07:27:30.384Z,1003.65
2022-10-13T07:28:30.453Z,1003.66
2022-10-13T07:29:30.363Z,1003.66
2022-10-13T07:30:30.360Z,1003.77
2022-10-13T07:31:30.353Z,1003.76
2022-10-13T07:32:30.358Z,1003.73
2022-10-13T07:33:30.346Z,1003.71
2022-10-13T07:34:30.335Z,1003.74
2022-10-13T07:35:31.053Z,1003.80
2022-10-13T07:36:30.293Z,1003.77
2022-10-13T07:37:30.289Z,1003.84
2022-10-13T07:38:30.296Z,1003.86
2022-10-13T07:39:30.281Z,1003.82
2022-10-13T07:40:30.248Z,1003.80
2022-10-13T07:41:30.240Z,1003.80
2022-10-13T07:42:30.244Z,1003.79
2022-10-13T07:43:30.233Z,1003.81
2022-10-13T07:44:30.248Z,1003.77
2022-10-13T07:45:30.225Z,1003.81
2022-10-13T07:46:30.233Z,1003.79
2022-10-13T07:47:30.185Z,1003.76
2022-10-13T07:48:30.182Z,1003.81
2022-10-13T07:49:30.180Z,1003.82
2022-10-13T07:50:30.152Z,1003.84
2022-10-13T07:51:30.128Z,1003.85
2022-10-13T07:52:30.172Z,1003.78
2022-10-13T07:53:30.120Z,1003.81
2022-10-13T07:54:30.127Z,1003.83
2022-10-13T07:55:30.117Z,1003.80
2022-10-13T07:56:30.077Z,1003.87
2022-10-13T07:57:30.081Z,1003.83
2022-10-13T07:58:30.264Z,1003.80
2022-10-13T07:59:30.075Z,1003.85
2022-10-13T08:00:30.035Z,1003.86
2022-10-13T08:01:30.093Z,1003.85
2022-10-13T08:02:30.054Z,1003.86
2022-10-13T08:03:30.071Z,1003.85
2022-10-13T08:04:30.020Z,1003.86
2022-10-13T08:05:30.101Z,1003.76
2022-10-13T08:06:29.996Z,1003.77
2022-10-13T08:07:29.966Z,1003.72
2022-10-13T08:08:29.953Z,1003.73
2022-10-13T08:09:30.014Z,1003.70
2022-10-13T08:10:29.955Z,1003.65
2022-10-13T08:11:29.914Z,1003.58
2022-10-13T08:12:29.937Z,1003.59
2022-10-13T08:13:29.970Z,1003.54
2022-10-13T08:14:30.124Z,1003.51
2022-10-13T08:15:29.947Z,1003.53
2022-10-13T08:16:29.872Z,1003.51
2022-10-13T08:17:29.884Z,1003.56
2022-10-13T08:18:29.861Z,1003.55
2022-10-13T08:19:29.849Z,1003.57
2022-10-13T08:20:40.877Z,1003.55
2022-10-13T08:21:57.151Z,1003.59
2022-10-13T08:22:30.812Z,1003.61
2022-10-13T08:23:29.782Z,1003.60
2022-10-13T08:24:29.796Z,1003.62
2022-10-13T08:25:29.765Z,1003.63
2022-10-13T08:26:29.754Z,1003.56
2022-10-13T08:27:49.566Z,1003.60
2022-10-13T08:28:30.873Z,1003.63
2022-10-13T08:29:29.772Z,1003.68
2022-10-13T08:30:29.879Z,1003.69
2022-10-13T08:31:29.945Z,1003.64
2022-10-13T08:32:29.775Z,1003.63
2022-10-13T08:33:29.691Z,1003.61
2022-10-13T08:34:29.678Z,1003.58
2022-10-13T08:35:34.137Z,1003.57
2022-10-13T08:36:30.636Z,1003.56
2022-10-13T08:37:29.661Z,1003.57
2022-10-13T08:38:29.625Z,1003.56
2022-10-13T08:39:29.627Z,1003.57
2022-10-13T08:40:29.626Z,1003.64
2022-10-13T08:41:29.670Z,1003.64
2022-10-13T08:42:29.586Z,1003.64
2022-10-13T08:43:29.562Z,1003.62
2022-10-13T08:45:10.795Z,1003.57
2022-10-13T08:45:46.144Z,1003.55
2022-10-13T08:46:30.547Z,1003.54
2022-10-13T08:47:29.544Z,1003.55
2022-10-13T08:48:29.510Z,1003.52
2022-10-13T08:49:29.503Z,1003.46
2022-10-13T08:50:29.529Z,1003.45
2022-10-13T08:51:29.485Z,1003.49
2022-10-13T08:52:29.490Z,1003.48
2022-10-13T08:53:29.463Z,1003.52
2022-10-13T08:54:29.452Z,1003.46
2022-10-13T08:55:29.472Z,1003.49
2022-10-13T08:56:29.428Z,1003.45
2022-10-13T08:57:29.420Z,1003.45
2022-10-13T08:58:29.431Z,1003.42
2022-10-13T08:59:29.414Z,1003.40
2022-10-13T09:00:29.393Z,1003.41
2022-10-13T09:01:29.463Z,1003.42
2022-10-13T09:02:29.390Z,1003.43
2022-10-13T09:03:29.387Z,1003.42
2022-10-13T09:04:29.365Z,1003.44
2022-10-13T09:05:29.335Z,1003.38
2022-10-13T09:06:29.357Z,1003.37
2022-10-13T09:07:29.392Z,1003.37
2022-10-13T09:08:29.294Z,1003.38
2022-10-13T09:09:29.321Z,1003.37
2022-10-13T09:10:29.358Z,1003.38
2022-10-13T09:11:29.294Z,1003.34
2022-10-13T09:12:29.306Z,1003.35
2022-10-13T09:13:29.263Z,1003.33
2022-10-13T09:14:29.289Z,1003.38
2022-10-13T09:15:29.246Z,1003.38
2022-10-13T09:16:29.257Z,1003.38
2022-10-13T09:17:29.239Z,1003.34
2022-10-13T09:18:29.210Z,1003.38
2022-10-13T09:19:29.243Z,1003.36
2022-10-13T09:20:29.203Z,1003.35
2022-10-13T09:21:29.161Z,1003.37
2022-10-13T09:22:29.200Z,1003.36
2022-10-13T09:23:29.145Z,1003.36
2022-10-13T09:24:29.168Z,1003.38
2022-10-13T09:25:29.163Z,1003.35
2022-10-13T09:26:29.123Z,1003.35
2022-10-13T09:27:29.109Z,1003.33
2022-10-13T09:28:29.165Z,1003.38
2022-10-13T09:29:29.070Z,1003.34
2022-10-13T09:30:29.097Z,1003.36
2022-10-13T09:31:29.072Z,1003.38
2022-10-13T09:32:29.062Z,1003.34
2022-10-13T09:33:29.259Z,1003.34
2022-10-13T09:34:29.057Z,1003.34
2022-10-13T09:35:29.030Z,1003.32
2022-10-13T09:36:29.028Z,1003.36
2022-10-13T09:37:28.990Z,1003.33
2022-10-13T09:38:28.973Z,1003.35
2022-10-13T09:39:28.968Z,1003.35
2022-10-13T09:40:28.971Z,1003.35
2022-10-13T09:41:28.964Z,1003.36
2022-10-13T09:42:28.930Z,1003.34
2022-10-13T09:43:28.932Z,1003.32
2022-10-13T09:44:28.929Z,1003.35
2022-10-13T09:45:28.903Z,1003.38
2022-10-13T09:46:28.900Z,1003.36
2022-10-13T09:47:28.941Z,1003.32
2022-10-13T09:48:28.869Z,1003.33
2022-10-13T09:49:28.897Z,1003.28
2022-10-13T09:50:28.889Z,1003.31
2022-10-13T09:51:28.847Z,1003.23
2022-10-13T09:52:28.830Z,1003.29
2022-10-13T09:53:28.818Z,1003.28
2022-10-13T09:54:28.871Z,1003.35
2022-10-13T09:55:32.329Z,1003.34
2022-10-13T09:56:28.797Z,1003.32
2022-10-13T09:57:28.770Z,1003.37
2022-10-13T09:58:28.769Z,1003.27
2022-10-13T09:59:28.774Z,1003.31
2022-10-13T10:00:28.798Z,1003.25
2022-10-13T10:01:28.722Z,1003.26
2022-10-13T10:02:29.117Z,1003.25
2022-10-13T10:03:28.706Z,1003.24
2022-10-13T10:04:28.766Z,1003.23
2022-10-13T10:05:28.774Z,1003.22
2022-10-13T10:06:28.708Z,1003.21
2022-10-13T10:07:28.678Z,1003.22
2022-10-13T10:08:33.875Z,1003.21
2022-10-13T10:09:29.653Z,1003.17
2022-10-13T10:10:28.632Z,1003.16
2022-10-13T10:11:28.675Z,1003.15
2022-10-13T10:12:28.609Z,1003.16
2022-10-13T10:13:28.613Z,1003.16
2022-10-13T10:14:28.589Z,1003.21
2022-10-13T10:15:28.580Z,1003.17
2022-10-13T10:16:28.594Z,1003.22
2022-10-13T10:17:28.584Z,1003.19
2022-10-13T10:18:28.558Z,1003.19
2022-10-13T10:19:28.588Z,1003.18
2022-10-13T10:20:28.552Z,1003.16
2022-10-13T10:21:28.540Z,1003.17
2022-10-13T10:22:28.536Z,1003.15
2022-10-13T10:23:28.509Z,1003.10
2022-10-13T10:24:28.486Z,1003.13
2022-10-13T10:25:28.475Z,1003.12
2022-10-13T10:26:32.523Z,1003.12
2022-10-13T10:27:28.474Z,1003.09
2022-10-13T10:28:28.595Z,1003.15
2022-10-13T10:29:28.428Z,1003.14
2022-10-13T10:30:28.463Z,1003.15
2022-10-13T10:31:28.401Z,1003.17
2022-10-13T10:32:28.421Z,1003.17
2022-10-13T10:33:28.390Z,1003.20
2022-10-13T10:34:28.425Z,1003.13
2022-10-13T10:35:28.355Z,1003.11
2022-10-13T10:36:28.365Z,1003.11
2022-10-13T10:37:28.346Z,1003.12
2022-10-13T10:38:28.361Z,1003.12
2022-10-13T10:39:28.331Z,1003.04
2022-10-13T10:40:28.336Z,1002.97
2022-10-13T10:41:28.293Z,1002.96
2022-10-13T10:42:28.292Z,1003.01
2022-10-13T10:43:28.326Z,1003.01
2022-10-13T10:44:28.351Z,1002.96
2022-10-13T10:45:28.259Z,1002.93
2022-10-13T10:46:28.267Z,1002.93
2022-10-13T10:47:28.745Z,1002.93
2022-10-13T10:48:28.222Z,1002.93
2022-10-13T10:49:28.213Z,1002.92
2022-10-13T10:50:28.339Z,1002.89
2022-10-13T10:51:28.184Z,1002.86
2022-10-13T10:52:28.180Z,1002.82
2022-10-13T10:53:28.171Z,1002.88
2022-10-13T10:54:28.182Z,1002.87
2022-10-13T10:55:28.269Z,1002.84
2022-10-13T10:56:28.130Z,1002.80
2022-10-13T10:57:28.145Z,1002.77
2022-10-13T10:58:28.113Z,1002.76
2022-10-13T10:59:28.104Z,1002.79
2022-10-13T11:01:28.151Z,1002.74
2022-10-13T11:02:28.071Z,1002.68
2022-10-13T11:03:28.092Z,1002.72
2022-10-13T11:04:28.052Z,1002.65
2022-10-13T11:05:28.032Z,1002.73
2022-10-13T11:06:28.124Z,1002.70
2022-10-13T11:07:28.078Z,1002.69
2022-10-13T11:08:28.064Z,1002.66
2022-10-13T11:09:28.010Z,1002.66
2022-10-13T11:10:27.995Z,1002.64
2022-10-13T11:11:30.194Z,1002.60
2022-10-13T11:12:27.960Z,1002.55
2022-10-13T11:13:27.970Z,1002.56
2022-10-13T11:14:27.943Z,1002.56
2022-10-13T11:15:27.942Z,1002.54
2022-10-13T11:16:27.916Z,1002.53
2022-10-13T11:17:27.930Z,1002.54
2022-10-13T11:18:27.897Z,1002.55
2022-10-13T11:19:27.910Z,1002.54
2022-10-13T11:20:27.876Z,1002.53
2022-10-13T11:21:27.859Z,1002.51
2022-10-13T11:22:27.848Z,1002.53
2022-10-13T11:23:27.862Z,1002.52
2022-10-13T11:24:27.879Z,1002.54
2022-10-13T11:25:27.819Z,1002.51
2022-10-13T11:26:27.821Z,1002.51
2022-10-13T11:27:27.837Z,1002.53
2022-10-13T11:28:27.842Z,1002.53
2022-10-13T11:29:27.772Z,1002.52
2022-10-13T11:31:32.038Z,1002.60
2022-10-13T11:32:28.746Z,1002.55
2022-10-13T11:33:27.772Z,1002.50
2022-10-13T11:34:27.716Z,1002.55
2022-10-13T11:35:27.714Z,1002.53
2022-10-13T11:36:27.726Z,1002.52
2022-10-13T11:37:27.700Z,1002.52
2022-10-13T11:38:27.694Z,1002.43
2022-10-13T11:39:27.814Z,1002.45
2022-10-13T11:40:27.653Z,1002.42
2022-10-13T11:41:27.640Z,1002.44
2022-10-13T11:42:27.682Z,1002.49
2022-10-13T11:43:27.632Z,1002.39
2022-10-13T11:45:27.603Z,1002.37
2022-10-13T11:46:27.631Z,1002.37
2022-10-13T11:47:27.580Z,1002.35
2022-10-13T11:48:27.583Z,1002.26
2022-10-13T11:49:27.598Z,1002.23
2022-10-13T11:50:27.541Z,1002.23
2022-10-13T11:51:27.556Z,1002.23
2022-10-13T11:52:27.587Z,1002.22
2022-10-13T11:53:27.542Z,1002.16
2022-10-13T11:54:27.508Z,1002.20
2022-10-13T11:55:27.534Z,1002.19
2022-10-13T11:56:27.497Z,1002.22
2022-10-13T11:57:27.481Z,1002.19
2022-10-13T11:58:27.512Z,1002.15
2022-10-13T11:59:27.476Z,1002.15
2022-10-13T12:00:27.505Z,1002.18
2022-10-13T12:01:27.454Z,1002.12
2022-10-13T12:02:27.651Z,1002.05
2022-10-13T12:03:27.414Z,1002.07
2022-10-13T12:04:27.423Z,1002.13
2022-10-13T12:05:27.423Z,1002.03
2022-10-13T12:06:27.381Z,1002.06
2022-10-13T12:07:27.375Z,1002.02
2022-10-13T12:08:27.365Z,1002.01
2022-10-13T12:09:27.366Z,1002.05
2022-10-13T12:10:27.343Z,1002.03
2022-10-13T12:11:27.324Z,1002.02
2022-10-13T12:12:27.313Z,1002.03
2022-10-13T12:13:27.326Z,1002.02
2022-10-13T12:14:27.395Z,1001.99
2022-10-13T12:15:27.280Z,1002.02
2022-10-13T12:16:27.261Z,1002.06
2022-10-13T12:17:27.701Z,1002.02
2022-10-13T12:18:27.249Z,1002.04
2022-10-13T12:19:27.240Z,1002.05
2022-10-13T12:20:27.265Z,1002.05
2022-10-13T12:21:27.255Z,1002.07
2022-10-13T12:22:27.213Z,1002.09
2022-10-13T12:23:27.206Z,1002.08
2022-10-13T12:24:27.178Z,1002.08
2022-10-13T12:25:27.171Z,1002.07
2022-10-13T12:26:27.194Z,1002.10
2022-10-13T12:27:27.170Z,1002.07
2022-10-13T12:28:27.196Z,1002.04
2022-10-13T12:29:27.125Z,1002.04
2022-10-13T12:30:27.161Z,1002.01
2022-10-13T12:31:27.110Z,1001.97
2022-10-13T12:32:27.103Z,1001.97
2022-10-13T12:33:27.104Z,1002.01
2022-10-13T12:34:27.078Z,1001.97
2022-10-13T12:35:27.090Z,1001.97
2022-10-13T12:36:27.065Z,1001.99
2022-10-13T12:37:27.037Z,1001.99
2022-10-13T12:38:27.052Z,1002.02
2022-10-13T12:39:27.050Z,1001.97
2022-10-13T12:40:27.015Z,1002.00
2022-10-13T12:41:27.025Z,1001.94
2022-10-13T12:42:27.010Z,1001.95
2022-10-13T12:43:26.997Z,1001.99
2022-10-13T12:44:26.989Z,1002.01
2022-10-13T12:45:26.955Z,1001.98
2022-10-13T12:46:26.965Z,1001.96
2022-10-13T12:47:26.931Z,1001.98
2022-10-13T12:48:26.946Z,1001.99
2022-10-13T12:49:26.936Z,1001.98
2022-10-13T12:50:26.971Z,1001.99
2022-10-13T12:51:26.899Z,1001.98
2022-10-13T12:52:26.897Z,1001.99
2022-10-13T12:53:26.883Z,1001.98
2022-10-13T12:54:26.859Z,1001.97
2022-10-13T12:55:27.885Z,1001.96
2022-10-13T12:56:26.857Z,1001.95
2022-10-13T12:57:26.827Z,1001.92
2022-10-13T12:58:26.845Z,1001.94
2022-10-13T12:59:26.813Z,1001.91
2022-10-13T13:00:26.936Z,1001.90
2022-10-13T13:01:26.782Z,1001.92
2022-10-13T13:02:26.799Z,1001.89
2022-10-13T13:03:26.788Z,1001.86
2022-10-13T13:04:26.758Z,1001.86
2022-10-13T13:05:26.739Z,1001.89
2022-10-13T13:06:26.759Z,1001.90
2022-10-13T13:07:26.723Z,1001.88
2022-10-13T13:08:26.730Z,1001.84
2022-10-13T13:09:26.733Z,1001.85
2022-10-13T13:10:26.715Z,1001.91
2022-10-13T13:11:26.678Z,1001.83
2022-10-13T13:12:26.698Z,1001.86
2022-10-13T13:13:26.656Z,1001.86
2022-10-13T13:14:26.674Z,1001.87
2022-10-13T13:15:26.651Z,1001.85
2022-10-13T13:16:26.618Z,1001.87
2022-10-13T13:18:27.663Z,1001.90
2022-10-13T13:19:26.591Z,1001.94
2022-10-13T13:20:26.654Z,1001.96
2022-10-13T13:21:26.569Z,1001.89
2022-10-13T13:22:26.625Z,1001.89
2022-10-13T13:23:26.565Z,1001.93
2022-10-13T13:24:36.075Z,1001.96
2022-10-13T13:25:27.551Z,1001.99
2022-10-13T13:26:26.570Z,1001.91
2022-10-13T13:27:26.513Z,1001.85
2022-10-13T13:28:26.519Z,1001.84
2022-10-13T13:29:26.482Z,1001.87
2022-10-13T13:30:26.498Z,1001.92
2022-10-13T13:31:26.480Z,1001.92
2022-10-13T13:32:26.465Z,1001.93
2022-10-13T13:33:26.481Z,1001.98
2022-10-13T13:34:26.458Z,1001.93
2022-10-13T13:35:26.439Z,1001.90
2022-10-13T13:36:26.437Z,1001.91
2022-10-13T13:37:26.454Z,1001.95
2022-10-13T13:38:26.386Z,1001.89
2022-10-13T13:39:26.377Z,1001.89
2022-10-13T13:40:26.400Z,1001.92
2022-10-13T13:41:26.364Z,1001.90
2022-10-13T13:42:26.368Z,1001.90
2022-10-13T13:43:26.346Z,1001.87
2022-10-13T13:44:26.325Z,1001.84
2022-10-13T13:45:26.334Z,1001.86
2022-10-13T13:46:26.301Z,1001.84
2022-10-13T13:47:26.293Z,1001.83
2022-10-13T13:48:26.309Z,1001.86
2022-10-13T13:49:26.272Z,1001.82
2022-10-13T13:50:26.299Z,1001.82
2022-10-13T13:51:26.259Z,1001.83
2022-10-13T13:52:26.242Z,1001.87
2022-10-13T13:53:26.222Z,1001.86
2022-10-13T13:54:26.248Z,1001.84
2022-10-13T13:55:26.235Z,1001.81
2022-10-13T13:56:26.193Z,1001.81
2022-10-13T13:57:26.177Z,1001.80
2022-10-13T13:58:26.169Z,1001.80
2022-10-13T13:59:26.170Z,1001.72
2022-10-13T14:00:26.171Z,1001.72
2022-10-13T14:01:26.234Z,1001.77
2022-10-13T14:02:26.127Z,1001.75
2022-10-13T14:03:26.117Z,1001.71
2022-10-13T14:04:26.101Z,1001.71
2022-10-13T14:05:26.103Z,1001.68
2022-10-13T14:06:26.110Z,1001.71
2022-10-13T14:07:26.101Z,1001.67
2022-10-13T14:08:26.130Z,1001.69
2022-10-13T14:09:26.053Z,1001.65
2022-10-13T14:10:26.063Z,1001.62
2022-10-13T14:11:26.041Z,1001.58
2022-10-13T14:12:26.035Z,1001.55
2022-10-13T14:13:26.026Z,1001.59
2022-10-13T14:14:26.001Z,1001.57
2022-10-13T14:15:29.659Z,1001.60
2022-10-13T14:16:26.027Z,1001.57
2022-10-13T14:17:25.969Z,1001.57
2022-10-13T14:18:25.966Z,1001.51
2022-10-13T14:19:25.951Z,1001.52
2022-10-13T14:20:25.958Z,1001.50
2022-10-13T14:21:25.928Z,1001.53
2022-10-13T14:22:26.509Z,1001.53
2022-10-13T14:23:25.912Z,1001.52
2022-10-13T14:24:25.892Z,1001.55
2022-10-13T14:25:25.878Z,1001.50
2022-10-13T14:26:25.879Z,1001.48
2022-10-13T14:27:25.857Z,1001.45
2022-10-13T14:28:25.878Z,1001.45
2022-10-13T14:29:25.868Z,1001.45
2022-10-13T14:30:25.819Z,1001.44
2022-10-13T14:31:25.828Z,1001.45
2022-10-13T14:32:25.801Z,1001.43
2022-10-13T14:33:25.791Z,1001.41
2022-10-13T14:34:25.807Z,1001.42
2022-10-13T14:35:25.804Z,1001.40
2022-10-13T14:36:25.764Z,1001.39
2022-10-13T14:37:29.063Z,1001.38
2022-10-13T14:38:26.775Z,1001.38
2022-10-13T14:39:25.730Z,1001.39
2022-10-13T14:40:25.717Z,1001.39
2022-10-13T14:41:25.709Z,1001.35
2022-10-13T14:42:25.731Z,1001.36
2022-10-13T14:43:25.683Z,1001.40
2022-10-13T14:44:25.721Z,1001.40
2022-10-13T14:45:25.704Z,1001.36
2022-10-13T14:46:25.670Z,1001.34
2022-10-13T14:47:25.627Z,1001.36
2022-10-13T14:48:25.641Z,1001.35
2022-10-13T14:49:25.620Z,1001.40
2022-10-13T14:50:25.603Z,1001.31
2022-10-13T14:51:25.622Z,1001.38
2022-10-13T14:52:25.606Z,1001.35
2022-10-13T14:53:25.569Z,1001.37
2022-10-13T14:54:25.575Z,1001.39
2022-10-13T14:55:25.544Z,1001.39
2022-10-13T14:56:25.541Z,1001.36
2022-10-13T14:57:25.523Z,1001.36
2022-10-13T14:58:25.540Z,1001.37
2022-10-13T14:59:25.501Z,1001.35
2022-10-13T15:00:25.502Z,1001.31
2022-10-13T15:01:25.495Z,1001.28
2022-10-13T15:02:25.491Z,1001.27
2022-10-13T15:03:25.534Z,1001.27
2022-10-13T15:04:25.457Z,1001.25
2022-10-13T15:05:25.476Z,1001.28
2022-10-13T15:06:25.460Z,1001.28
2022-10-13T15:07:25.423Z,1001.24
2022-10-13T15:08:25.404Z,1001.26
2022-10-13T15:09:33.519Z,1001.25
2022-10-13T15:10:26.425Z,1001.26
2022-10-13T15:11:25.378Z,1001.28
2022-10-13T15:12:25.394Z,1001.28
2022-10-13T15:13:25.360Z,1001.25
2022-10-13T15:14:25.373Z,1001.26
2022-10-13T15:15:25.350Z,1001.22
2022-10-13T15:16:25.382Z,1001.24
2022-10-13T15:17:25.307Z,1001.22
2022-10-13T15:18:28.385Z,1001.25
2022-10-13T15:19:25.286Z,1001.22
2022-10-13T15:20:25.303Z,1001.24
2022-10-13T15:21:25.266Z,1001.26
2022-10-13T15:22:25.275Z,1001.21
2022-10-13T15:23:25.245Z,1001.20
2022-10-13T15:24:25.242Z,1001.24
2022-10-13T15:25:25.256Z,1001.22
2022-10-13T15:26:25.234Z,1001.20
2022-10-13T15:27:25.202Z,1001.17
2022-10-13T15:28:25.281Z,1001.20
2022-10-13T15:29:25.197Z,1001.19
2022-10-13T15:30:25.174Z,1001.18
2022-10-13T15:31:25.197Z,1001.19
2022-10-13T15:32:25.497Z,1001.19
2022-10-13T15:33:25.207Z,1001.21
2022-10-13T15:34:25.133Z,1001.19
2022-10-13T15:35:25.110Z,1001.20
2022-10-13T15:36:25.111Z,1001.20
2022-10-13T15:37:25.107Z,1001.23
2022-10-13T15:38:25.113Z,1001.19
2022-10-13T15:39:25.107Z,1001.20
2022-10-13T15:40:25.061Z,1001.21
2022-10-13T15:41:25.047Z,1001.20
2022-10-13T15:42:25.068Z,1001.21
2022-10-13T15:43:25.042Z,1001.19
2022-10-13T15:44:25.029Z,1001.18
2022-10-13T15:45:25.026Z,1001.18
2022-10-13T15:46:24.997Z,1001.17
2022-10-13T15:47:25.033Z,1001.17
2022-10-13T15:48:24.979Z,1001.18
2022-10-13T15:49:24.984Z,1001.17
2022-10-13T15:50:25.041Z,1001.15
2022-10-13T15:51:24.943Z,1001.21
2022-10-13T15:52:25.271Z,1001.19
2022-10-13T15:53:24.926Z,1001.12
2022-10-13T15:54:24.946Z,1001.13
2022-10-13T15:55:24.901Z,1001.08
2022-10-13T15:56:24.903Z,1001.08
2022-10-13T15:57:24.885Z,1001.08
2022-10-13T15:58:24.880Z,1001.10
2022-10-13T15:59:24.911Z,1001.06
2022-10-13T16:00:24.998Z,1001.07
2022-10-13T16:01:24.951Z,1001.08
2022-10-13T16:02:24.824Z,1001.07
2022-10-13T16:03:24.831Z,1001.08
2022-10-13T16:04:24.813Z,1001.10
2022-10-13T16:05:24.797Z,1001.12
2022-10-13T16:06:24.781Z,1001.13
2022-10-13T16:07:24.767Z,1001.12
2022-10-13T16:08:24.782Z,1001.08
2022-10-13T16:09:24.768Z,1001.06
2022-10-13T16:10:24.764Z,1001.10
2022-10-13T16:11:24.737Z,1001.09
2022-10-13T16:12:24.740Z,1001.04
2022-10-13T16:13:24.719Z,1001.02
2022-10-13T16:14:24.705Z,1001.00
2022-10-13T16:15:24.703Z,1001.02
2022-10-13T16:16:24.676Z,1001.00
2022-10-13T16:17:24.655Z,1001.01
2022-10-13T16:18:24.658Z,1001.01
2022-10-13T16:19:24.653Z,1001.00
2022-10-13T16:20:24.633Z,1001.00
2022-10-13T16:21:24.609Z,1001.04
2022-10-13T16:22:24.648Z,1001.00
2022-10-13T16:23:24.593Z,1000.97
2022-10-13T16:24:24.577Z,1000.98
2022-10-13T16:25:24.583Z,1000.99
2022-10-13T16:26:25.295Z,1001.01
2022-10-13T16:27:24.560Z,1001.01
2022-10-13T16:28:24.629Z,1001.01
2022-10-13T16:29:24.570Z,1001.05
2022-10-13T16:30:24.584Z,1001.04
2022-10-13T16:31:24.501Z,1001.02
2022-10-13T16:32:24.497Z,1001.00
2022-10-13T16:33:24.502Z,1001.01
2022-10-13T16:34:24.521Z,1001.02
2022-10-13T16:35:24.463Z,1000.99
2022-10-13T16:36:24.460Z,1000.97
2022-10-13T16:37:24.738Z,1001.01
2022-10-13T16:38:24.456Z,1000.98
2022-10-13T16:39:24.477Z,1000.93